Terminal Aerodrome Forecast
Issued by NWS

Home | Current Version | Previous Version | Text Only | Print | Product List | Glossary On
Versions: 1 2 3 4 5 6 7 8 9 10 11 12 13 14 15 16 17 18 19
000
FTUS46 KSEW 242300
TAFPAE
TAF
KPAE 242330Z 2500/2524 35004KT P6SM SKC
     FM250400 01008KT P6SM -RA OVC080
     FM250700 05009KT P6SM -RA OVC040
     FM251300 07008KT 3SM -RA BR OVC010
     FM251800 12008KT P6SM -RA BKN018 OVC030=

USA.gov is the U.S. government's official web portal to all federal, state and local government web resources and services.